createdAt,value
2018-04-11T00:01:23.797Z,89.72
2018-04-11T00:03:52.051Z,90.43
2018-04-11T00:06:20.314Z,90.30
2018-04-11T00:08:48.608Z,90.11
2018-04-11T00:11:16.886Z,90.58
2018-04-11T00:13:45.161Z,89.97
2018-04-11T00:16:13.438Z,89.51
2018-04-11T00:18:41.737Z,90.06
2018-04-11T00:21:10.759Z,89.60
2018-04-11T00:23:39.820Z,89.46
2018-04-11T00:26:08.067Z,89.95
2018-04-11T00:28:36.604Z,91.18
2018-04-11T00:31:05.644Z,91.04
2018-04-11T00:33:34.018Z,89.84
2018-04-11T00:36:02.455Z,89.67
2018-04-11T00:38:31.589Z,88.87
2018-04-11T00:40:59.837Z,88.99
2018-04-11T00:43:28.114Z,89.07
2018-04-11T00:45:56.406Z,89.20
2018-04-11T00:48:24.675Z,89.54
2018-04-11T00:50:52.936Z,89.99
2018-04-11T00:53:28.013Z,90.04
2018-04-11T00:55:56.280Z,90.22
2018-04-11T00:58:24.550Z,89.66
2018-04-11T01:00:52.820Z,89.23
2018-04-11T01:03:21.091Z,88.47
2018-04-11T01:05:49.477Z,87.96
2018-04-11T01:08:17.754Z,87.82
2018-04-11T01:10:46.027Z,88.75
2018-04-11T01:13:14.272Z,88.26
2018-04-11T01:15:42.545Z,88.01
2018-04-11T01:18:10.803Z,88.95
2018-04-11T01:20:40.245Z,88.92
2018-04-11T01:23:08.517Z,88.51
2018-04-11T01:25:36.797Z,87.14
2018-04-11T01:28:05.067Z,87.73
2018-04-11T01:30:33.319Z,87.89
2018-04-11T01:33:02.346Z,88.37
2018-04-11T01:35:30.605Z,88.79
2018-04-11T01:37:58.875Z,88.46
2018-04-11T01:40:27.113Z,87.71
2018-04-11T01:42:56.142Z,87.54
2018-04-11T01:45:24.454Z,88.55
2018-04-11T01:47:52.716Z,88.34
2018-04-11T01:50:20.979Z,87.16
2018-04-11T01:52:49.262Z,88.04
2018-04-11T01:55:17.501Z,87.42
2018-04-11T01:57:45.842Z,88.15
2018-04-11T02:00:14.100Z,89.50
2018-04-11T02:02:42.614Z,88.56
2018-04-11T02:05:11.688Z,88.61
2018-04-11T02:07:39.995Z,89.02
2018-04-11T02:10:09.115Z,88.50
2018-04-11T02:12:37.377Z,89.26
2018-04-11T02:15:05.730Z,89.32
2018-04-11T02:17:33.965Z,89.53
2018-04-11T02:20:02.234Z,88.61
2018-04-11T02:22:30.499Z,89.26
2018-04-11T02:24:58.785Z,89.54
2018-04-11T02:27:27.056Z,89.96
2018-04-11T02:29:55.330Z,90.30
2018-04-11T02:32:23.586Z,89.94
2018-04-11T02:34:51.875Z,90.45
2018-04-11T02:37:20.245Z,90.01
2018-04-11T02:39:49.285Z,89.65
2018-04-11T02:42:17.543Z,88.42
2018-04-11T02:44:45.949Z,88.34
2018-04-11T02:47:14.201Z,88.39
2018-04-11T02:49:42.450Z,89.04
2018-04-11T02:52:10.727Z,88.95
2018-04-11T02:54:38.980Z,89.14
2018-04-11T02:57:07.275Z,89.74
2018-04-11T02:59:35.549Z,89.41
2018-04-11T03:02:03.823Z,89.03
2018-04-11T03:04:32.074Z,89.65
2018-04-11T03:07:00.480Z,89.58
2018-04-11T03:09:28.722Z,88.88
2018-04-11T03:11:56.981Z,88.49
2018-04-11T03:14:26.021Z,88.65
2018-04-11T03:16:54.276Z,88.51
2018-04-11T03:19:22.541Z,88.27
2018-04-11T03:21:51.723Z,88.54
2018-04-11T03:24:20.764Z,88.15
2018-04-11T03:26:49.210Z,88.76
2018-04-11T03:29:18.225Z,88.22
2018-04-11T03:31:46.492Z,87.67
2018-04-11T03:34:14.765Z,87.57
2018-04-11T03:36:43.034Z,87.00
2018-04-11T03:39:11.310Z,87.94
2018-04-11T03:41:39.549Z,89.05
2018-04-11T03:44:07.816Z,87.87
2018-04-11T03:46:36.157Z,88.17
2018-04-11T03:49:04.435Z,87.95
2018-04-11T03:51:32.702Z,88.50
2018-04-11T03:54:00.954Z,87.74
2018-04-11T03:56:29.232Z,87.29
2018-04-11T03:58:57.527Z,88.30
2018-04-11T04:01:25.808Z,88.33
2018-04-11T04:03:54.314Z,87.29
2018-04-11T04:06:22.704Z,87.39
2018-04-11T04:08:50.937Z,86.44
2018-04-11T04:11:19.194Z,86.18
2018-04-11T04:17:19.095Z,88.70
2018-04-11T04:20:05.866Z,88.53
2018-04-11T04:22:34.150Z,88.30
2018-04-11T04:25:02.510Z,87.85
2018-04-11T04:27:30.797Z,88.60
2018-04-11T04:29:59.052Z,89.08
2018-04-11T04:32:27.336Z,88.55
2018-04-11T04:34:55.845Z,87.96
2018-04-11T04:37:24.128Z,88.53
2018-04-11T04:39:52.371Z,88.51
2018-04-11T04:42:20.640Z,88.12
2018-04-11T04:44:48.903Z,88.34
2018-04-11T04:47:17.139Z,89.03
2018-04-11T04:49:46.170Z,89.24
2018-04-11T04:52:14.421Z,89.49
2018-04-11T04:54:42.827Z,88.95
2018-04-11T04:57:11.503Z,89.61
2018-04-11T04:59:39.858Z,89.14
2018-04-11T05:02:09.047Z,87.89
2018-04-11T05:04:37.388Z,88.41
2018-04-11T05:07:05.847Z,88.31
2018-04-11T05:09:34.114Z,89.58
2018-04-11T05:12:02.491Z,88.79
2018-04-11T05:14:30.752Z,89.07
2018-04-11T05:16:59.265Z,89.09
2018-04-11T05:19:27.542Z,88.44
2018-04-11T05:21:55.813Z,89.17
2018-04-11T05:24:24.077Z,89.04
2018-04-11T05:26:52.499Z,89.07
2018-04-11T05:29:21.514Z,89.57
2018-04-11T05:31:50.021Z,89.34
2018-04-11T05:34:18.275Z,87.94
2018-04-11T05:36:46.677Z,88.18
2018-04-11T05:39:14.969Z,88.25
2018-04-11T05:41:43.233Z,88.79
2018-04-11T05:44:11.480Z,88.51
2018-04-11T05:46:39.785Z,87.98
2018-04-11T05:49:08.051Z,88.86
2018-04-11T05:51:36.331Z,89.00
2018-04-11T05:54:04.914Z,89.95
2018-04-11T05:56:33.182Z,89.64
2018-04-11T05:59:01.499Z,89.98
2018-04-11T06:01:29.749Z,89.21
2018-04-11T06:03:58.016Z,89.43
2018-04-11T06:06:26.265Z,88.64
2018-04-11T06:08:54.533Z,88.48
2018-04-11T06:11:22.793Z,88.50
2018-04-11T06:13:51.846Z,88.11
2018-04-11T06:16:20.126Z,87.59
2018-04-11T06:18:48.405Z,88.59
2018-04-11T06:21:16.668Z,88.97
2018-04-11T06:23:45.123Z,88.67
2018-04-11T06:26:13.400Z,88.40
2018-04-11T06:28:41.865Z,88.16
2018-04-11T06:31:10.277Z,88.50
2018-04-11T06:33:38.613Z,87.36
2018-04-11T06:36:06.886Z,87.29
2018-04-11T06:38:35.143Z,86.57
2018-04-11T06:41:04.386Z,86.64
2018-04-11T06:43:32.681Z,85.77
2018-04-11T06:46:00.966Z,85.06
2018-04-11T06:48:29.241Z,84.47
2018-04-11T06:50:57.505Z,85.19
2018-04-11T06:53:25.802Z,84.65
2018-04-11T06:55:54.870Z,84.42
2018-04-11T06:58:23.136Z,82.88
2018-04-11T07:00:51.407Z,83.32
2018-04-11T07:03:19.683Z,83.36
2018-04-11T07:05:47.972Z,83.10
2018-04-11T07:08:16.285Z,82.53
2018-04-11T07:10:45.406Z,82.11
2018-04-11T07:13:13.701Z,80.00
2018-04-11T07:15:41.977Z,79.76
2018-04-11T07:18:10.382Z,79.36
2018-04-11T07:20:38.678Z,76.66
2018-04-11T07:23:07.104Z,76.60
2018-04-11T07:25:35.361Z,76.32
2018-04-11T07:28:03.658Z,75.28
2018-04-11T07:30:31.931Z,72.22
2018-04-11T07:33:00.212Z,72.94
2018-04-11T07:35:28.486Z,72.52
2018-04-11T07:37:56.760Z,71.40
2018-04-11T07:40:25.095Z,70.68
2018-04-11T07:42:53.311Z,71.81
2018-04-11T07:45:21.608Z,71.56
2018-04-11T07:47:50.062Z,70.04
2018-04-11T07:50:18.373Z,70.28
2018-04-11T07:52:46.673Z,71.07
2018-04-11T07:55:15.763Z,71.38
2018-04-11T07:57:44.037Z,70.99
2018-04-11T08:00:13.283Z,69.78
2018-04-11T08:02:41.660Z,69.50
2018-04-11T08:05:09.928Z,70.48
2018-04-11T08:07:38.209Z,69.04
2018-04-11T08:10:06.528Z,69.99
2018-04-11T08:12:34.964Z,67.55
2018-04-11T08:15:03.245Z,67.81
2018-04-11T08:17:31.529Z,67.20
2018-04-11T08:19:59.905Z,67.38
2018-04-11T08:22:28.186Z,68.61
2018-04-11T08:24:56.631Z,67.88
2018-04-11T08:27:24.934Z,67.40
2018-04-11T08:29:53.219Z,67.21
2018-04-11T08:32:21.685Z,66.43
2018-04-11T08:34:49.978Z,66.64
2018-04-11T08:37:18.258Z,66.96
2018-04-11T08:39:46.510Z,64.45
2018-04-11T08:42:14.794Z,65.37
2018-04-11T08:44:43.058Z,64.76
2018-04-11T08:47:11.433Z,66.22
2018-04-11T08:49:39.714Z,65.18
2018-04-11T08:52:08.028Z,65.07
2018-04-11T08:54:36.311Z,63.27
2018-04-11T08:57:05.331Z,63.58
2018-04-11T08:59:33.629Z,63.10
2018-04-11T09:02:01.877Z,63.43
2018-04-11T09:04:30.139Z,62.96
2018-04-11T09:06:59.260Z,63.83
2018-04-11T09:09:27.517Z,62.15
2018-04-11T09:11:55.830Z,61.34
2018-04-11T09:14:24.149Z,60.97
2018-04-11T09:16:53.187Z,59.66
2018-04-11T09:19:21.748Z,57.75
2018-04-11T09:21:50.042Z,56.64
2018-04-11T09:24:18.523Z,50.52
2018-04-11T09:26:46.802Z,49.38
2018-04-11T09:29:15.068Z,47.12
2018-04-11T09:31:43.409Z,47.46
2018-04-11T09:34:11.680Z,47.30
2018-04-11T09:36:40.055Z,44.39
2018-04-11T09:39:08.381Z,42.60
2018-04-11T09:41:36.655Z,43.82
2018-04-11T09:44:04.931Z,43.17
2018-04-11T09:46:33.307Z,42.38
2018-04-11T09:49:01.590Z,42.13
2018-04-11T09:51:29.858Z,41.07
2018-04-11T09:53:58.151Z,39.01
2018-04-11T09:56:26.421Z,38.22
2018-04-11T09:58:54.779Z,37.59
2018-04-11T10:01:23.388Z,37.04
2018-04-11T10:03:51.747Z,38.81
2018-04-11T10:06:21.384Z,34.89
2018-04-11T10:08:49.674Z,35.62
2018-04-11T10:11:18.743Z,38.58
2018-04-11T10:13:47.033Z,35.91
2018-04-11T10:16:15.371Z,36.91
2018-04-11T10:18:43.672Z,37.74
2018-04-11T10:21:11.943Z,37.58
2018-04-11T10:23:40.184Z,35.43
2018-04-11T10:26:08.496Z,32.53
2018-04-11T10:28:36.923Z,33.84
2018-04-11T10:31:05.953Z,35.78
2018-04-11T10:33:34.232Z,34.79
2018-04-11T10:36:02.491Z,34.35
2018-04-11T10:38:30.749Z,31.82
2018-04-11T10:40:59.042Z,33.83
2018-04-11T10:43:27.478Z,33.59
2018-04-11T10:45:56.537Z,31.63
2018-04-11T10:48:24.825Z,32.37
2018-04-11T10:50:53.175Z,31.00
2018-04-11T10:53:21.435Z,30.39
2018-04-11T10:55:49.727Z,29.97
2018-04-11T10:58:18.004Z,29.92
2018-04-11T11:00:46.414Z,31.13
2018-04-11T11:03:14.663Z,30.50
2018-04-11T11:05:43.023Z,30.44
2018-04-11T11:08:11.303Z,31.22
2018-04-11T11:10:39.663Z,31.61
2018-04-11T11:13:08.070Z,31.96
2018-04-11T11:15:36.370Z,32.76
2018-04-11T11:18:04.647Z,32.38
2018-04-11T11:20:33.672Z,31.36
2018-04-11T11:23:01.983Z,30.38
2018-04-11T11:25:30.882Z,30.83
2018-04-11T11:27:59.174Z,31.98
2018-04-11T11:30:27.461Z,33.57
2018-04-11T11:32:56.501Z,31.74
2018-04-11T11:35:24.778Z,29.10
2018-04-11T11:37:53.062Z,29.65
2018-04-11T11:40:21.342Z,31.99
2018-04-11T11:42:49.618Z,32.07
2018-04-11T11:45:17.925Z,30.96
2018-04-11T11:47:46.192Z,31.49
2018-04-11T11:50:14.489Z,30.91
2018-04-11T11:52:43.525Z,29.12
2018-04-11T11:55:11.802Z,29.60
2018-04-11T11:57:40.085Z,31.55
2018-04-11T12:00:08.352Z,30.74
2018-04-11T12:02:37.097Z,29.30
2018-04-11T12:05:06.128Z,29.15
2018-04-11T12:07:34.559Z,29.93
2018-04-11T12:10:03.637Z,29.51
2018-04-11T12:12:31.933Z,28.06
2018-04-11T12:15:01.001Z,28.16
2018-04-11T12:17:29.352Z,29.71
2018-04-11T12:19:57.626Z,27.48
2018-04-11T12:22:25.904Z,28.46
2018-04-11T12:24:54.167Z,27.84
2018-04-11T12:27:22.448Z,26.77
2018-04-11T12:29:50.829Z,27.34
2018-04-11T12:32:19.117Z,29.59
2018-04-11T12:34:47.390Z,29.09
2018-04-11T12:37:15.645Z,30.75
2018-04-11T12:39:43.931Z,32.55
2018-04-11T12:42:12.206Z,34.32
2018-04-11T12:44:40.491Z,33.05
2018-04-11T12:47:08.755Z,34.53
2018-04-11T12:49:37.145Z,35.22
2018-04-11T12:52:05.407Z,36.28
2018-04-11T12:54:33.699Z,38.03
2018-04-11T12:57:01.973Z,37.77
2018-04-11T12:59:30.239Z,37.44
2018-04-11T13:01:58.510Z,39.25
2018-04-11T13:04:26.789Z,38.69
2018-04-11T13:06:55.078Z,40.55
2018-04-11T13:09:23.427Z,40.29
2018-04-11T13:11:51.712Z,39.81
2018-04-11T13:14:20.030Z,40.34
2018-04-11T13:16:49.412Z,41.08
2018-04-11T13:19:17.729Z,40.59
2018-04-11T13:21:46.041Z,40.01
2018-04-11T13:24:14.316Z,37.82
2018-04-11T13:26:44.034Z,38.19
2018-04-11T13:29:12.313Z,38.87
2018-04-11T13:31:40.984Z,38.36
2018-04-11T13:34:09.175Z,39.63
2018-04-11T13:36:38.266Z,40.81
2018-04-11T13:39:06.573Z,39.63
2018-04-11T13:41:35.640Z,40.32
2018-04-11T13:44:03.921Z,39.45
2018-04-11T13:46:32.180Z,39.27
2018-04-11T13:49:01.278Z,39.62
2018-04-11T13:51:29.561Z,39.74
2018-04-11T13:53:58.455Z,38.49
2018-04-11T13:56:27.501Z,38.73
2018-04-11T13:58:55.769Z,40.39
2018-04-11T14:01:24.056Z,41.50
2018-04-11T14:03:52.327Z,41.18
2018-04-11T14:06:20.637Z,39.11
2018-04-11T14:08:48.922Z,39.44
2018-04-11T14:11:17.218Z,40.49
2018-04-11T14:13:46.558Z,40.97
2018-04-11T14:16:15.039Z,39.72
2018-04-11T14:18:43.375Z,40.30
2018-04-11T14:21:11.704Z,41.16
2018-04-11T14:23:39.977Z,41.47
2018-04-11T14:26:08.273Z,40.28
2018-04-11T14:28:36.673Z,39.76
2018-04-11T14:31:05.777Z,40.07
2018-04-11T14:33:34.832Z,40.15
2018-04-11T14:36:03.128Z,40.38
2018-04-11T14:38:31.541Z,40.50
2018-04-11T14:40:59.843Z,40.79
2018-04-11T14:43:28.117Z,40.85
2018-04-11T14:45:56.419Z,39.87
2018-04-11T14:48:24.680Z,39.21
2018-04-11T14:50:52.979Z,38.00
2018-04-11T14:53:21.241Z,39.49
2018-04-11T14:55:49.899Z,40.73
2018-04-11T14:58:21.565Z,40.43
2018-04-11T15:00:50.232Z,37.87
2018-04-11T15:03:18.601Z,38.23
2018-04-11T15:05:46.893Z,38.16
2018-04-11T15:08:15.163Z,39.71
2018-04-11T15:10:43.436Z,39.65
2018-04-11T15:13:11.728Z,41.14
2018-04-11T15:15:39.992Z,40.23
2018-04-11T15:18:08.284Z,41.49
2018-04-11T15:20:36.572Z,42.05
2018-04-11T15:23:04.848Z,42.56
2018-04-11T15:25:33.148Z,42.58
2018-04-11T15:28:02.188Z,42.64
2018-04-11T15:30:30.474Z,42.91
2018-04-11T15:32:58.764Z,42.18
2018-04-11T15:35:27.073Z,41.12
2018-04-11T15:37:56.132Z,39.96
2018-04-11T15:40:24.388Z,37.80
2018-04-11T15:42:52.961Z,35.98
2018-04-11T15:45:21.370Z,34.77
2018-04-11T15:47:49.811Z,35.07
2018-04-11T15:50:18.095Z,34.05
2018-04-11T15:52:46.406Z,35.04
2018-04-11T15:55:14.866Z,32.20
2018-04-11T15:57:43.300Z,33.19
2018-04-11T16:00:12.564Z,33.47
2018-04-11T16:02:41.278Z,33.68
2018-04-11T16:05:09.767Z,35.53
2018-04-11T16:07:44.027Z,33.06
2018-04-11T16:10:12.381Z,31.79
2018-04-11T16:12:40.996Z,33.80
2018-04-11T16:15:09.395Z,33.36
2018-04-11T16:17:38.679Z,33.19
2018-04-11T16:20:07.240Z,32.65
2018-04-11T16:22:35.523Z,34.03
2018-04-11T16:25:03.938Z,35.26
2018-04-11T16:27:33.093Z,34.72
2018-04-11T16:30:01.446Z,33.67
2018-04-11T16:32:29.980Z,34.29
2018-04-11T16:34:58.341Z,35.24
2018-04-11T16:37:26.766Z,36.57
2018-04-11T16:39:55.904Z,38.62
2018-04-11T16:42:24.525Z,40.65
2018-04-11T16:44:54.142Z,41.84
2018-04-11T16:47:22.622Z,41.49
2018-04-11T16:49:52.306Z,41.82
2018-04-11T16:52:21.240Z,39.13
2018-04-11T16:54:49.584Z,40.36
2018-04-11T16:57:19.660Z,40.29
2018-04-11T16:59:48.438Z,41.34
2018-04-11T17:02:16.810Z,40.87
2018-04-11T17:04:45.202Z,41.41
2018-04-11T17:07:13.766Z,42.43
2018-04-11T17:09:42.352Z,41.95
2018-04-11T17:12:10.656Z,44.09
2018-04-11T17:14:39.024Z,44.42
2018-04-11T17:17:07.698Z,45.57
2018-04-11T17:19:36.039Z,46.43
2018-04-11T17:22:22.853Z,47.39
2018-04-11T17:25:08.937Z,47.74
2018-04-11T17:27:55.984Z,48.31
2018-04-11T17:30:42.589Z,49.09
2018-04-11T17:33:11.087Z,49.29
2018-04-11T17:35:39.500Z,49.31
2018-04-11T17:38:07.913Z,49.88
2018-04-11T17:40:36.601Z,50.63
2018-04-11T17:43:04.975Z,50.42
2018-04-11T17:45:33.507Z,50.69
2018-04-11T17:48:01.880Z,51.06
2018-04-11T17:50:30.477Z,51.10
2018-04-11T17:52:59.161Z,52.00
2018-04-11T17:55:28.320Z,52.74
2018-04-11T17:57:56.792Z,52.40
2018-04-11T18:00:25.196Z,52.71
2018-04-11T18:02:54.677Z,53.05
2018-04-11T18:05:23.224Z,53.47
2018-04-11T18:07:51.894Z,53.24
2018-04-11T18:10:21.246Z,53.65
2018-04-11T18:12:50.348Z,53.28
2018-04-11T18:15:19.136Z,53.40
2018-04-11T18:17:47.762Z,53.18
2018-04-11T18:20:16.154Z,53.43
2018-04-11T18:22:44.547Z,54.11
2018-04-11T18:25:13.373Z,54.91
2018-04-11T18:27:42.044Z,55.09
2018-04-11T18:30:10.624Z,55.67
2018-04-11T18:32:39.206Z,55.48
2018-04-11T18:35:07.660Z,55.43
2018-04-11T18:37:36.308Z,56.09
2018-04-11T18:40:04.994Z,55.95
2018-04-11T18:42:33.594Z,56.33
2018-04-11T18:45:01.950Z,55.97
2018-04-11T18:47:37.119Z,56.54
2018-04-11T18:50:11.310Z,56.55
2018-04-11T18:52:40.256Z,56.86
2018-04-11T18:55:09.778Z,57.22
2018-04-11T18:57:38.398Z,57.25
2018-04-11T19:00:07.491Z,57.73
2018-04-11T19:02:36.054Z,57.88
2018-04-11T19:05:05.476Z,58.04
2018-04-11T19:07:33.824Z,58.07
2018-04-11T19:10:03.394Z,58.82
2018-04-11T19:12:31.979Z,58.71
2018-04-11T19:15:00.941Z,58.63
2018-04-11T19:17:29.858Z,58.70
2018-04-11T19:19:58.644Z,58.77
2018-04-11T19:22:27.519Z,58.04
2018-04-11T19:24:56.489Z,57.78
2018-04-11T19:27:25.080Z,57.92
2018-04-11T19:29:53.898Z,58.15
2018-04-11T19:32:22.416Z,58.48
2018-04-11T19:34:51.099Z,58.17
2018-04-11T19:37:20.186Z,57.93
2018-04-11T19:39:48.461Z,57.92
2018-04-11T19:42:16.738Z,58.07
2018-04-11T19:44:45.022Z,57.36
2018-04-11T19:47:13.606Z,56.88
2018-04-11T19:49:41.902Z,56.84
2018-04-11T19:52:10.926Z,55.70
2018-04-11T19:54:39.268Z,56.23
2018-04-11T19:57:08.337Z,55.80
2018-04-11T19:59:36.627Z,55.99
2018-04-11T20:02:05.674Z,55.86
2018-04-11T20:04:33.991Z,55.85
2018-04-11T20:07:02.300Z,55.50
2018-04-11T20:09:30.623Z,55.60
2018-04-11T20:11:58.888Z,54.79
2018-04-11T20:14:27.358Z,55.01
2018-04-11T20:16:55.784Z,54.94
2018-04-11T20:19:24.833Z,54.67
2018-04-11T20:21:53.194Z,54.78
2018-04-11T20:24:21.578Z,55.38
2018-04-11T20:26:49.847Z,55.71
2018-04-11T20:29:18.382Z,55.82
2018-04-11T20:31:47.540Z,56.03
2018-04-11T20:34:15.809Z,55.91
2018-04-11T20:36:44.120Z,56.28
2018-04-11T20:39:12.466Z,56.02
2018-04-11T20:41:40.820Z,55.89
2018-04-11T20:44:09.112Z,57.27
2018-04-11T20:46:37.374Z,55.87
2018-04-11T20:49:05.671Z,55.70
2018-04-11T20:51:33.993Z,55.96
2018-04-11T20:54:03.335Z,55.55
2018-04-11T20:56:31.613Z,55.57
2018-04-11T20:59:00.095Z,55.71
2018-04-11T21:01:28.369Z,55.26
2018-04-11T21:03:56.654Z,55.49
2018-04-11T21:06:24.930Z,55.64
2018-04-11T21:08:53.264Z,55.38
2018-04-11T21:11:22.654Z,55.67
2018-04-11T21:13:51.739Z,55.59
2018-04-11T21:16:20.833Z,55.47
2018-04-11T21:18:49.972Z,55.26
2018-04-11T21:21:18.226Z,55.13
2018-04-11T21:23:46.500Z,55.59
2018-04-11T21:26:14.778Z,54.95
2018-04-11T21:28:43.058Z,55.48
2018-04-11T21:31:11.317Z,55.45
2018-04-11T21:33:40.394Z,55.10
2018-04-11T21:36:08.698Z,54.83
2018-04-11T21:38:36.975Z,54.75
2018-04-11T21:41:05.265Z,55.10
2018-04-11T21:43:33.529Z,54.91
2018-04-11T21:46:01.824Z,54.84
2018-04-11T21:48:30.096Z,55.01
2018-04-11T21:50:58.491Z,54.04
2018-04-11T21:53:26.733Z,54.48
2018-04-11T21:55:55.031Z,55.24
2018-04-11T21:58:23.287Z,54.15
2018-04-11T22:00:51.586Z,54.14
2018-04-11T22:03:19.843Z,52.97
2018-04-11T22:05:48.095Z,53.60
2018-04-11T22:08:16.485Z,53.28
2018-04-11T22:10:44.756Z,52.92
2018-04-11T22:13:13.038Z,53.43
2018-04-11T22:15:41.339Z,52.93
2018-04-11T22:18:09.615Z,52.96
2018-04-11T22:20:37.896Z,52.38
2018-04-11T22:23:06.182Z,51.92
2018-04-11T22:25:34.497Z,51.99
2018-04-11T22:28:02.797Z,51.31
2018-04-11T22:30:31.071Z,50.93
2018-04-11T22:32:59.351Z,52.15
2018-04-11T22:35:27.880Z,51.23
2018-04-11T22:37:56.270Z,51.55
2018-04-11T22:40:25.320Z,51.54
2018-04-11T22:42:53.584Z,51.60
2018-04-11T22:45:21.842Z,51.93
2018-04-11T22:47:51.059Z,51.96
2018-04-11T22:50:19.364Z,52.71
2018-04-11T22:52:47.762Z,52.83
2018-04-11T22:55:17.003Z,52.86
2018-04-11T22:57:45.282Z,52.84
2018-04-11T23:00:13.655Z,52.96
2018-04-11T23:02:41.909Z,54.03
2018-04-11T23:05:10.243Z,54.31
2018-04-11T23:07:39.284Z,54.32
2018-04-11T23:10:07.548Z,54.50
2018-04-11T23:12:36.769Z,54.14
2018-04-11T23:15:05.033Z,54.56
2018-04-11T23:17:33.861Z,55.24
2018-04-11T23:20:02.165Z,55.16
2018-04-11T23:22:31.326Z,55.33
2018-04-11T23:24:59.607Z,55.32
2018-04-11T23:27:27.879Z,55.98
2018-04-11T23:29:56.156Z,55.70
2018-04-11T23:32:24.557Z,56.26
2018-04-11T23:34:52.813Z,56.39
2018-04-11T23:37:21.095Z,56.03
2018-04-11T23:39:49.366Z,56.11
2018-04-11T23:42:17.663Z,56.23
2018-04-11T23:44:46.685Z,56.78
2018-04-11T23:47:14.978Z,57.21
2018-04-11T23:49:43.352Z,56.96
2018-04-11T23:52:11.626Z,57.24
2018-04-11T23:54:39.902Z,57.63
2018-04-11T23:57:08.207Z,57.05
2018-04-11T23:59:36.699Z,56.77
